createdAt,value
2023-01-30T00:02:04.306Z,100654.44
2023-01-30T00:04:32.623Z,100665.47
2023-01-30T00:07:00.771Z,100677.31
2023-01-30T00:09:28.962Z,100684.06
2023-01-30T00:11:58.472Z,100680.69
2023-01-30T00:14:26.684Z,100678.16
2023-01-30T00:16:54.931Z,100676.44
2023-01-30T00:19:23.208Z,100671.38
2023-01-30T00:21:51.471Z,100671.38
2023-01-30T00:24:19.779Z,100652.75
2023-01-30T00:26:47.967Z,100659.53
2023-01-30T00:29:17.396Z,100652.78
2023-01-30T00:31:45.680Z,100652.78
2023-01-30T00:34:13.841Z,100648.50
2023-01-30T00:36:42.038Z,100651.91
2023-01-30T00:39:10.242Z,100655.28
2023-01-30T00:41:52.325Z,100651.91
2023-01-30T00:44:39.285Z,100647.66
2023-01-30T00:47:08.926Z,100651.09
2023-01-30T00:49:37.225Z,100638.38
2023-01-30T00:52:05.921Z,100631.56
2023-01-30T00:54:34.154Z,100622.25
2023-01-30T00:57:02.412Z,100622.25
2023-01-30T00:59:31.991Z,100613.78
2023-01-30T01:02:00.549Z,100609.53
2023-01-30T01:04:29.039Z,100601.06
2023-01-30T01:06:57.604Z,100599.38
2023-01-30T01:09:26.019Z,100585.81
2023-01-30T01:11:57.237Z,100573.06
2023-01-30T01:14:25.867Z,100576.47
2023-01-30T01:16:55.710Z,100556.94
2023-01-30T01:19:24.077Z,100564.59
2023-01-30T01:21:52.300Z,100570.53
2023-01-30T01:24:20.467Z,100560.38
2023-01-30T01:26:48.701Z,100564.59
2023-01-30T01:29:17.490Z,100562.91
2023-01-30T01:31:45.793Z,100562.91
2023-01-30T01:34:15.341Z,100572.25
2023-01-30T01:36:54.224Z,100570.53
2023-01-30T01:39:23.476Z,100564.59
2023-01-30T01:41:51.048Z,100562.91
2023-01-30T01:44:19.234Z,100576.44
2023-01-30T01:46:49.804Z,100568.84
2023-01-30T01:49:23.004Z,100560.34
2023-01-30T01:51:55.206Z,100556.13
2023-01-30T01:54:27.162Z,100552.72
2023-01-30T01:56:55.549Z,100560.38
2023-01-30T01:59:28.044Z,100556.13
2023-01-30T02:01:57.489Z,100562.06
2023-01-30T02:04:42.428Z,100559.53
2023-01-30T02:07:10.580Z,100559.53
2023-01-30T02:09:38.847Z,100562.06
2023-01-30T02:12:07.210Z,100549.34
2023-01-30T02:14:35.347Z,100534.94
2023-01-30T02:17:03.700Z,100517.97
2023-01-30T02:19:42.896Z,100512.88
2023-01-30T02:22:44.704Z,100508.63
2023-01-30T02:25:48.734Z,100510.34
2023-01-30T02:28:50.268Z,100519.66
2023-01-30T02:31:28.239Z,100517.13
2023-01-30T02:34:06.719Z,100521.38
2023-01-30T02:36:42.422Z,100508.63
2023-01-30T02:39:17.380Z,100486.63
2023-01-30T02:41:49.798Z,100504.41
2023-01-30T02:44:21.846Z,100490.84
2023-01-30T02:46:54.797Z,100484.06
2023-01-30T02:49:27.359Z,100492.53
2023-01-30T02:51:55.539Z,100500.16
2023-01-30T02:54:23.636Z,100506.94
2023-01-30T02:56:53.322Z,100504.41
2023-01-30T02:59:26.200Z,100506.06
2023-01-30T03:02:33.659Z,100509.47
2023-01-30T03:05:23.825Z,100522.16
2023-01-30T03:07:56.717Z,100515.41
2023-01-30T03:10:31.732Z,100520.47
2023-01-30T03:13:07.532Z,100517.97
2023-01-30T03:15:37.326Z,100518.78
2023-01-30T03:18:06.745Z,100530.69
2023-01-30T03:20:37.951Z,100527.28
2023-01-30T03:23:07.578Z,100518.78
2023-01-30T03:25:37.319Z,100509.47
2023-01-30T03:28:05.910Z,100506.09
2023-01-30T03:30:34.306Z,100501.00
2023-01-30T03:33:10.212Z,100507.78
2023-01-30T03:35:40.163Z,100513.69
2023-01-30T03:38:08.434Z,100507.75
2023-01-30T03:40:36.672Z,100510.28
2023-01-30T03:43:04.826Z,100496.75
2023-01-30T03:45:33.222Z,100493.38
2023-01-30T03:48:01.419Z,100486.56
2023-01-30T03:50:30.851Z,100496.75
2023-01-30T03:52:59.123Z,100492.53
2023-01-30T03:55:27.456Z,100495.09
2023-01-30T03:57:58.753Z,100493.34
2023-01-30T04:00:30.106Z,100498.44
2023-01-30T04:02:58.987Z,100513.69
2023-01-30T04:05:27.257Z,100493.34
2023-01-30T04:08:01.831Z,100495.06
2023-01-30T04:10:30.021Z,100486.56
2023-01-30T04:12:58.555Z,100495.03
2023-01-30T04:15:26.742Z,100490.81
2023-01-30T04:18:19.243Z,100480.66
2023-01-30T04:21:00.025Z,100484.03
2023-01-30T04:23:36.968Z,100484.91
2023-01-30T04:26:05.765Z,100489.97
2023-01-30T04:28:37.573Z,100487.44
2023-01-30T04:31:06.095Z,100485.72
2023-01-30T04:33:58.251Z,100475.56
2023-01-30T04:36:26.546Z,100465.41
2023-01-30T04:38:56.326Z,100465.38
2023-01-30T04:41:25.888Z,100467.91
2023-01-30T04:43:58.463Z,100461.16
2023-01-30T04:47:01.916Z,100457.78
2023-01-30T04:49:29.975Z,100448.44
2023-01-30T04:52:00.936Z,100448.44
2023-01-30T04:54:30.416Z,100440.81
2023-01-30T04:56:58.694Z,100424.69
2023-01-30T04:59:26.982Z,100423.00
2023-01-30T05:01:56.167Z,100425.56
2023-01-30T05:04:24.289Z,100416.22
2023-01-30T05:06:52.422Z,100416.22
2023-01-30T05:09:20.619Z,100401.81
2023-01-30T05:11:50.278Z,100407.75
2023-01-30T05:14:18.678Z,100402.66
2023-01-30T05:16:46.780Z,100399.25
2023-01-30T05:19:15.027Z,100398.41
2023-01-30T05:21:43.210Z,100396.72
2023-01-30T05:24:11.329Z,100395.88
2023-01-30T05:26:39.526Z,100393.34
2023-01-30T05:29:10.468Z,100398.41
2023-01-30T05:31:38.773Z,100389.94
2023-01-30T05:34:07.034Z,100387.41
2023-01-30T05:36:35.152Z,100388.25
2023-01-30T05:39:03.420Z,100392.50
2023-01-30T05:41:31.865Z,100391.63
2023-01-30T05:44:00.002Z,100397.56
2023-01-30T05:46:29.618Z,100407.72
2023-01-30T05:48:57.970Z,100413.69
2023-01-30T05:51:27.741Z,100411.97
2023-01-30T05:53:55.893Z,100405.22
2023-01-30T05:56:24.060Z,100405.22
2023-01-30T05:58:52.613Z,100422.19
2023-01-30T06:01:20.983Z,100415.41
2023-01-30T06:03:50.644Z,100404.34
2023-01-30T06:06:18.864Z,100411.16
2023-01-30T06:08:47.080Z,100417.06
2023-01-30T06:11:17.270Z,100404.34
2023-01-30T06:13:45.552Z,100387.38
2023-01-30T06:16:14.960Z,100392.47
2023-01-30T06:18:43.125Z,100388.22
2023-01-30T06:21:12.594Z,100378.91
2023-01-30T06:23:40.755Z,100380.59
2023-01-30T06:26:09.417Z,100379.72
2023-01-30T06:28:38.041Z,100351.75
2023-01-30T06:31:08.424Z,100371.25
2023-01-30T06:33:36.819Z,100346.66
2023-01-30T06:36:05.351Z,100349.19
2023-01-30T06:38:35.378Z,100343.28
2023-01-30T06:41:03.437Z,100351.75
2023-01-30T06:43:31.638Z,100344.13
2023-01-30T06:46:00.387Z,100339.03
2023-01-30T06:48:28.667Z,100351.69
2023-01-30T06:50:56.751Z,100344.88
2023-01-30T06:53:30.690Z,100349.13
2023-01-30T06:56:00.634Z,100350.81
2023-01-30T06:58:28.869Z,100352.47
2023-01-30T07:00:56.967Z,100347.41
2023-01-30T07:03:25.229Z,100358.47
2023-01-30T07:05:53.343Z,100358.47
2023-01-30T07:08:23.223Z,100348.25
2023-01-30T07:10:52.274Z,100366.06
2023-01-30T07:13:21.982Z,100363.53
2023-01-30T07:15:50.535Z,100349.13
2023-01-30T07:18:18.647Z,100340.63
2023-01-30T07:20:48.838Z,100344.00
2023-01-30T07:23:17.855Z,100336.38
2023-01-30T07:25:46.025Z,100335.53
2023-01-30T07:28:14.256Z,100305.81
2023-01-30T07:30:43.733Z,100340.63
2023-01-30T07:33:11.939Z,100340.59
2023-01-30T07:35:40.137Z,100329.59
2023-01-30T07:38:08.198Z,100344.81
2023-01-30T07:40:36.351Z,100363.50
2023-01-30T07:43:06.024Z,100372.81
2023-01-30T07:45:37.629Z,100366.88
2023-01-30T07:48:07.327Z,100347.34
2023-01-30T07:50:35.502Z,100349.03
2023-01-30T07:53:04.943Z,100342.25
2023-01-30T07:55:33.122Z,100339.72
2023-01-30T07:58:01.197Z,100353.31
2023-01-30T08:00:29.338Z,100349.91
2023-01-30T08:02:57.513Z,100349.91
2023-01-30T08:05:27.110Z,100351.59
2023-01-30T08:07:56.842Z,100368.59
2023-01-30T08:10:25.272Z,100358.41
2023-01-30T08:12:53.448Z,100365.19
2023-01-30T08:15:22.923Z,100380.47
2023-01-30T08:17:57.364Z,100381.28
2023-01-30T08:20:27.475Z,100381.31
2023-01-30T08:22:55.907Z,100383.84
2023-01-30T08:25:24.280Z,100370.28
2023-01-30T08:27:52.500Z,100367.69
2023-01-30T08:30:21.380Z,100360.03
2023-01-30T08:32:49.759Z,100350.72
2023-01-30T08:35:17.994Z,100364.28
2023-01-30T08:37:47.437Z,100346.44
2023-01-30T08:40:16.139Z,100343.91
2023-01-30T08:42:45.326Z,100348.97
2023-01-30T08:45:13.550Z,100337.94
2023-01-30T08:47:41.742Z,100345.56
2023-01-30T08:50:11.803Z,100365.09
2023-01-30T08:52:40.061Z,100365.97
2023-01-30T08:55:10.368Z,100364.25
2023-01-30T08:57:38.482Z,100357.44
2023-01-30T09:00:08.980Z,100354.03
2023-01-30T09:02:37.264Z,100361.69
2023-01-30T09:05:06.452Z,100347.25
2023-01-30T09:07:34.744Z,100332.78
2023-01-30T09:10:02.925Z,100326.84
2023-01-30T09:12:32.509Z,100331.94
2023-01-30T09:15:00.654Z,100324.25
2023-01-30T09:17:28.936Z,100325.09
2023-01-30T09:19:57.100Z,100320.00
2023-01-30T09:22:27.522Z,100320.03
2023-01-30T09:24:55.701Z,100306.47
2023-01-30T09:27:23.829Z,100303.91
2023-01-30T09:29:53.293Z,100285.25
2023-01-30T09:32:21.387Z,100292.84
2023-01-30T09:34:49.555Z,100312.34
2023-01-30T09:37:18.238Z,100311.53
2023-01-30T09:39:46.369Z,100298.75
2023-01-30T09:42:37.787Z,100311.47
2023-01-30T09:45:43.703Z,100313.13
2023-01-30T09:48:18.022Z,100321.63
2023-01-30T09:51:06.883Z,100309.69
2023-01-30T09:53:39.630Z,100304.59
2023-01-30T09:56:07.853Z,100304.59
2023-01-30T09:58:43.860Z,100303.75
2023-01-30T10:01:20.031Z,100307.97
2023-01-30T10:03:59.288Z,100307.13
2023-01-30T10:06:27.982Z,100307.97
2023-01-30T10:09:00.117Z,100311.34
2023-01-30T10:11:40.848Z,100308.78
2023-01-30T10:14:33.150Z,100304.50
2023-01-30T10:17:10.151Z,100303.63
2023-01-30T10:19:49.283Z,100296.00
2023-01-30T10:22:28.525Z,100295.13
2023-01-30T10:25:03.686Z,100292.53
2023-01-30T10:27:32.419Z,100292.53
2023-01-30T10:30:02.199Z,100301.00
2023-01-30T10:32:33.846Z,100304.34
2023-01-30T10:35:06.671Z,100300.94
2023-01-30T10:37:39.218Z,100300.06
2023-01-30T10:40:14.095Z,100293.19
2023-01-30T10:42:46.257Z,100279.56
2023-01-30T10:45:16.875Z,100283.78
2023-01-30T10:47:59.220Z,100290.56
2023-01-30T10:50:31.767Z,100287.13
2023-01-30T10:53:05.115Z,100283.69
2023-01-30T10:55:37.971Z,100276.81
2023-01-30T10:58:14.494Z,100269.97
2023-01-30T11:00:44.374Z,100265.69
2023-01-30T11:03:34.065Z,100268.22
2023-01-30T11:06:04.073Z,100246.09
2023-01-30T11:08:34.124Z,100269.91
2023-01-30T11:11:02.632Z,100269.84
2023-01-30T11:13:32.771Z,100265.53
2023-01-30T11:16:05.082Z,100259.53
2023-01-30T11:19:18.184Z,100257.78
2023-01-30T11:21:32.070Z,100253.53
2023-01-30T11:24:14.408Z,100257.81
2023-01-30T11:26:47.697Z,100260.38
2023-01-30T11:29:28.233Z,100256.94
2023-01-30T11:31:56.511Z,100261.13
2023-01-30T11:34:26.308Z,100241.50
2023-01-30T11:36:54.474Z,100246.56
2023-01-30T11:39:24.878Z,100229.50
2023-01-30T11:42:03.829Z,100238.00
2023-01-30T11:44:34.844Z,100240.53
2023-01-30T11:47:04.872Z,100240.50
2023-01-30T11:49:46.371Z,100232.72
2023-01-30T11:52:18.083Z,100239.34
2023-01-30T11:54:46.288Z,100236.66
2023-01-30T11:57:15.743Z,100235.69
2023-01-30T11:59:45.730Z,100238.09
2023-01-30T12:02:18.015Z,100239.69
2023-01-30T12:04:48.160Z,100235.31
2023-01-30T12:07:21.521Z,100236.06
2023-01-30T12:09:50.460Z,100236.03
2023-01-30T12:12:33.632Z,100235.88
2023-01-30T12:15:12.658Z,100232.50
2023-01-30T12:17:45.398Z,100236.72
2023-01-30T12:20:20.800Z,100223.94
2023-01-30T12:22:53.628Z,100220.53
2023-01-30T12:25:24.374Z,100227.38
2023-01-30T12:30:33.817Z,100227.38
2023-01-30T12:33:03.532Z,100224.81
2023-01-30T12:35:50.924Z,100217.97
2023-01-30T12:38:30.889Z,100217.16
2023-01-30T12:41:08.012Z,100208.66
2023-01-30T12:43:54.825Z,100227.38
2023-01-30T12:46:37.689Z,100232.41
2023-01-30T12:49:22.298Z,100223.75
2023-01-30T12:52:02.716Z,100238.00
2023-01-30T12:54:42.353Z,100227.63
2023-01-30T12:57:20.131Z,100224.91
2023-01-30T12:59:54.350Z,100225.63
2023-01-30T13:02:41.421Z,100225.47
2023-01-30T13:05:34.307Z,100216.50
2023-01-30T13:08:15.714Z,100217.53
2023-01-30T13:10:47.088Z,100209.09
2023-01-30T13:13:20.153Z,100222.63
2023-01-30T13:15:53.710Z,100218.44
2023-01-30T13:18:25.940Z,100221.19
2023-01-30T13:21:02.571Z,100226.41
2023-01-30T13:23:41.391Z,100228.09
2023-01-30T13:26:11.210Z,100229.00
2023-01-30T13:28:41.620Z,100213.75
2023-01-30T13:31:12.194Z,100212.94
2023-01-30T13:33:43.812Z,100218.00
2023-01-30T13:36:15.784Z,100217.22
2023-01-30T13:38:53.928Z,100217.16
2023-01-30T13:41:23.262Z,100224.88
2023-01-30T13:43:53.068Z,100228.31
2023-01-30T13:46:24.982Z,100224.91
2023-01-30T13:49:04.182Z,100229.13
2023-01-30T13:51:44.332Z,100218.63
2023-01-30T13:54:32.757Z,100217.59
2023-01-30T13:57:08.297Z,100228.22
2023-01-30T14:00:02.044Z,100237.13
2023-01-30T14:02:40.173Z,100234.56
2023-01-30T14:05:09.912Z,100212.50
2023-01-30T14:07:40.910Z,100217.88
2023-01-30T14:10:20.358Z,100227.44
2023-01-30T14:12:49.780Z,100242.94
2023-01-30T14:15:28.830Z,100249.09
2023-01-30T14:18:02.662Z,100233.03
2023-01-30T14:20:31.575Z,100244.25
2023-01-30T14:23:00.325Z,100246.03
2023-01-30T14:25:45.410Z,100252.97
2023-01-30T14:28:54.607Z,100246.25
2023-01-30T14:31:56.063Z,100254.91
2023-01-30T14:35:03.911Z,100251.56
2023-01-30T14:37:53.013Z,100257.59
2023-01-30T14:40:42.124Z,100270.38
2023-01-30T14:43:39.516Z,100264.44
2023-01-30T14:46:13.425Z,100272.06
2023-01-30T14:48:44.694Z,100260.06
2023-01-30T14:51:22.050Z,100260.97
2023-01-30T14:53:57.572Z,100267.72
2023-01-30T14:56:43.600Z,100260.97
2023-01-30T14:59:21.393Z,100263.41
2023-01-30T15:02:02.280Z,100259.97
2023-01-30T15:04:33.200Z,100271.03
2023-01-30T15:07:03.065Z,100278.69
2023-01-30T15:09:31.477Z,100283.81
2023-01-30T15:12:17.023Z,100286.28
2023-01-30T15:14:52.916Z,100290.56
2023-01-30T15:17:26.764Z,100293.94
2023-01-30T15:20:17.861Z,100300.75
2023-01-30T15:22:58.084Z,100303.22
2023-01-30T15:25:32.237Z,100306.59
2023-01-30T15:28:07.645Z,100313.38
2023-01-30T15:30:58.372Z,100319.31
2023-01-30T15:33:31.420Z,100319.38
2023-01-30T15:36:00.258Z,100322.78
2023-01-30T15:38:30.497Z,100322.03
2023-01-30T15:41:00.509Z,100333.03
2023-01-30T15:43:55.125Z,100339.03
2023-01-30T15:46:28.903Z,100350.88
2023-01-30T15:49:12.256Z,100366.25
2023-01-30T15:51:40.353Z,100374.00
2023-01-30T15:54:11.396Z,100386.03
2023-01-30T15:56:39.573Z,100398.09
2023-01-30T15:59:09.069Z,100402.38
2023-01-30T16:01:37.226Z,100399.03
2023-01-30T16:04:08.037Z,100407.69
2023-01-30T16:06:37.657Z,100407.72
2023-01-30T16:09:08.157Z,100412.84
2023-01-30T16:11:40.992Z,100412.84
2023-01-30T16:14:13.804Z,100413.72
2023-01-30T16:16:42.590Z,100412.09
2023-01-30T16:19:17.293Z,100419.78
2023-01-30T16:21:46.507Z,100421.47
2023-01-30T16:24:17.449Z,100422.34
2023-01-30T16:26:48.895Z,100421.50
2023-01-30T16:29:20.584Z,100433.50
2023-01-30T16:31:49.307Z,100434.34
2023-01-30T16:34:31.389Z,100435.25
2023-01-30T16:37:04.737Z,100452.31
2023-01-30T16:39:34.550Z,100447.22
2023-01-30T16:42:03.409Z,100460.91
2023-01-30T16:44:33.154Z,100472.00
2023-01-30T16:47:02.314Z,100475.53
2023-01-30T16:49:48.743Z,100473.91
2023-01-30T16:52:21.055Z,100468.09
2023-01-30T16:54:51.152Z,100479.22
2023-01-30T16:57:35.906Z,100475.03
2023-01-30T17:00:09.805Z,100482.78
2023-01-30T17:02:38.973Z,100485.34
2023-01-30T17:05:21.685Z,100495.59
2023-01-30T17:07:50.260Z,100500.72
2023-01-30T17:10:51.267Z,100504.22
2023-01-30T17:13:33.370Z,100510.19
2023-01-30T17:16:28.448Z,100514.53
2023-01-30T17:18:58.243Z,100518.81
2023-01-30T17:21:28.555Z,100523.94
2023-01-30T17:23:59.885Z,100518.06
2023-01-30T17:26:28.136Z,100518.13
2023-01-30T17:28:56.339Z,100519.06
2023-01-30T17:31:27.007Z,100522.47
2023-01-30T17:33:55.203Z,100525.03
2023-01-30T17:36:27.827Z,100532.78
2023-01-30T17:38:56.359Z,100536.16
2023-01-30T17:41:26.645Z,100548.19
2023-01-30T17:43:54.732Z,100544.84
2023-01-30T17:46:28.487Z,100559.38
2023-01-30T17:48:56.609Z,100555.97
2023-01-30T17:51:24.704Z,100555.09
2023-01-30T17:53:52.795Z,100561.88
2023-01-30T17:56:23.109Z,100564.44
2023-01-30T17:58:51.624Z,100570.38
2023-01-30T18:01:19.915Z,100570.38
2023-01-30T18:03:49.437Z,100564.41
2023-01-30T18:06:17.660Z,100580.59
2023-01-30T18:08:45.777Z,100581.50
2023-01-30T18:11:14.880Z,100579.78
2023-01-30T18:13:43.491Z,100590.00
2023-01-30T18:16:16.862Z,100599.41
2023-01-30T18:18:45.245Z,100596.00
2023-01-30T18:21:14.834Z,100605.41
2023-01-30T18:23:42.920Z,100607.97
2023-01-30T18:26:12.106Z,100628.44
2023-01-30T18:28:40.340Z,100625.88
2023-01-30T18:31:08.665Z,100624.19
2023-01-30T18:33:36.796Z,100632.69
2023-01-30T18:36:06.619Z,100635.25
2023-01-30T18:38:36.358Z,100634.38
2023-01-30T18:41:08.644Z,100623.31
2023-01-30T18:43:36.754Z,100631.00
2023-01-30T18:46:06.165Z,100623.38
2023-01-30T18:48:34.395Z,100634.44
2023-01-30T18:51:07.979Z,100634.44
2023-01-30T18:53:37.496Z,100644.66
2023-01-30T18:56:08.370Z,100642.09
2023-01-30T18:58:36.527Z,100649.78
2023-01-30T19:01:10.691Z,100656.56
2023-01-30T19:03:38.798Z,100659.13
2023-01-30T19:06:10.575Z,100660.00
2023-01-30T19:08:40.259Z,100657.47
2023-01-30T19:11:22.806Z,100664.28
2023-01-30T19:13:50.948Z,100663.44
2023-01-30T19:16:19.415Z,100670.28
2023-01-30T19:18:47.579Z,100665.19
2023-01-30T19:21:15.754Z,100667.72
2023-01-30T19:23:45.177Z,100671.09
2023-01-30T19:26:13.496Z,100680.44
2023-01-30T19:28:44.556Z,100677.88
2023-01-30T19:31:14.644Z,100677.81
2023-01-30T19:33:43.145Z,100677.81
2023-01-30T19:36:11.698Z,100683.78
2023-01-30T19:38:40.065Z,100688.88
2023-01-30T19:41:13.030Z,100686.31
2023-01-30T19:43:41.341Z,100696.56
2023-01-30T19:46:10.854Z,100702.50
2023-01-30T19:48:39.193Z,100697.41
2023-01-30T19:51:13.481Z,100689.72
2023-01-30T19:53:41.931Z,100688.00
2023-01-30T19:56:10.826Z,100694.00
2023-01-30T19:58:41.218Z,100702.56
2023-01-30T20:01:10.044Z,100702.56
2023-01-30T20:03:38.396Z,100710.19
2023-01-30T20:06:13.064Z,100716.16
2023-01-30T20:08:41.509Z,100711.91
2023-01-30T20:11:11.911Z,100717.91
2023-01-30T20:13:42.586Z,100721.25
2023-01-30T20:16:12.280Z,100718.69
2023-01-30T20:18:41.464Z,100720.38
2023-01-30T20:21:10.625Z,100722.94
2023-01-30T20:23:39.104Z,100721.25
2023-01-30T20:26:07.559Z,100728.13
2023-01-30T20:28:35.777Z,100725.53
2023-01-30T20:31:10.752Z,100719.63
2023-01-30T20:33:38.934Z,100731.50
2023-01-30T20:36:08.909Z,100728.94
2023-01-30T20:38:38.492Z,100735.78
2023-01-30T20:41:09.286Z,100740.84
2023-01-30T20:43:38.729Z,100736.56
2023-01-30T20:46:09.618Z,100749.34
2023-01-30T20:48:38.525Z,100764.69
2023-01-30T20:51:08.159Z,100762.09
2023-01-30T20:53:37.135Z,100762.94
2023-01-30T20:56:06.369Z,100770.59
2023-01-30T20:58:34.663Z,100774.84
2023-01-30T21:01:09.890Z,100777.41
2023-01-30T21:03:38.298Z,100774.84
2023-01-30T21:06:06.773Z,100775.69
2023-01-30T21:08:35.024Z,100787.59
2023-01-30T21:11:07.516Z,100790.09
2023-01-30T21:13:35.886Z,100790.09
2023-01-30T21:16:06.510Z,100796.00
2023-01-30T21:18:37.134Z,100797.69
2023-01-30T21:21:05.593Z,100801.94
2023-01-30T21:23:34.043Z,100792.56
2023-01-30T21:26:05.177Z,100794.28
2023-01-30T21:28:33.370Z,100813.03
2023-01-30T21:31:06.507Z,100814.75
2023-01-30T21:33:36.617Z,100817.28
2023-01-30T21:36:05.249Z,100823.25
2023-01-30T21:38:51.135Z,100822.41
2023-01-30T21:41:40.108Z,100823.25
2023-01-30T21:44:08.296Z,100832.63
2023-01-30T21:46:39.032Z,100832.63
2023-01-30T21:49:08.714Z,100836.91
2023-01-30T21:51:36.931Z,100830.97
2023-01-30T21:54:05.299Z,100830.91
2023-01-30T21:56:33.605Z,100830.06
2023-01-30T21:59:02.640Z,100823.22
2023-01-30T22:01:30.918Z,100835.97
2023-01-30T22:04:00.326Z,100832.59
2023-01-30T22:06:29.831Z,100830.91
2023-01-30T22:08:58.181Z,100836.03
2023-01-30T22:11:26.520Z,100834.31
2023-01-30T22:13:54.925Z,100839.44
2023-01-30T22:16:24.273Z,100838.59
2023-01-30T22:18:53.416Z,100834.31
2023-01-30T22:21:22.605Z,100840.31
2023-01-30T22:23:53.220Z,100844.53
2023-01-30T22:26:23.286Z,100848.81
2023-01-30T22:28:54.987Z,100854.78
2023-01-30T22:31:23.510Z,100859.06
2023-01-30T22:33:53.552Z,100862.47
2023-01-30T22:36:22.002Z,100869.31
2023-01-30T22:38:51.774Z,100871.00
2023-01-30T22:41:21.088Z,100868.47
2023-01-30T22:43:50.474Z,100875.28
2023-01-30T22:46:19.925Z,100876.09
2023-01-30T22:48:48.640Z,100888.03
2023-01-30T22:51:18.429Z,100883.78
2023-01-30T22:53:48.057Z,100888.03
2023-01-30T22:56:19.544Z,100883.75
2023-01-30T22:58:48.475Z,100880.31
2023-01-30T23:01:18.793Z,100870.91
2023-01-30T23:03:47.978Z,100879.41
2023-01-30T23:06:17.560Z,100879.41
2023-01-30T23:08:47.820Z,100870.84
2023-01-30T23:11:19.094Z,100875.97
2023-01-30T23:13:48.436Z,100876.00
2023-01-30T23:16:17.262Z,100887.94
2023-01-30T23:18:56.400Z,100882.81
2023-01-30T23:21:24.904Z,100880.22
2023-01-30T23:23:53.899Z,100873.41
2023-01-30T23:26:23.542Z,100883.66
2023-01-30T23:28:51.941Z,100877.75
2023-01-30T23:31:21.961Z,100876.91
2023-01-30T23:33:54.456Z,100876.03
2023-01-30T23:36:22.703Z,100866.66
2023-01-30T23:38:51.227Z,100864.97
2023-01-30T23:41:21.245Z,100871.78
2023-01-30T23:43:50.908Z,100866.66
2023-01-30T23:46:22.289Z,100872.56
2023-01-30T23:48:51.929Z,100870.91
2023-01-30T23:51:20.931Z,100870.84
2023-01-30T23:53:49.163Z,100876.84
2023-01-30T23:56:17.954Z,100876.84
2023-01-30T23:58:46.427Z,100872.63
